createdAt,value
2018-05-24T00:01:29.544Z,97.60
2018-05-24T00:04:04.132Z,97.60
2018-05-24T00:06:39.874Z,97.60
2018-05-24T00:09:07.961Z,97.50
2018-05-24T00:11:44.737Z,97.50
2018-05-24T00:14:18.614Z,97.50
2018-05-24T00:17:07.312Z,97.60
2018-05-24T00:19:36.362Z,97.60
2018-05-24T00:22:05.198Z,97.70
2018-05-24T00:24:34.288Z,97.70
2018-05-24T00:27:03.293Z,97.40
2018-05-24T00:29:31.377Z,97.40
2018-05-24T00:32:00.265Z,97.30
2018-05-24T00:34:28.351Z,97.20
2018-05-24T00:37:01.029Z,97.20
2018-05-24T00:39:29.888Z,97.30
2018-05-24T00:41:58.945Z,97.20
2018-05-24T00:44:30.509Z,97.40
2018-05-24T00:46:58.605Z,97.50
2018-05-24T00:49:26.688Z,97.50
2018-05-24T00:51:55.673Z,97.50
2018-05-24T00:54:24.561Z,97.40
2018-05-24T00:57:04.102Z,97.40
2018-05-24T00:59:33.144Z,97.90
2018-05-24T01:02:02.963Z,97.60
2018-05-24T01:04:35.957Z,97.70
2018-05-24T01:07:05.813Z,97.90
2018-05-24T01:09:34.306Z,97.90
2018-05-24T01:12:05.571Z,98.10
2018-05-24T01:14:33.656Z,98.00
2018-05-24T01:17:01.769Z,98.00
2018-05-24T01:19:29.844Z,98.00
2018-05-24T01:22:02.604Z,98.10
2018-05-24T01:24:30.700Z,98.10
2018-05-24T01:27:04.897Z,98.20
2018-05-24T01:29:37.112Z,98.30
2018-05-24T01:32:05.241Z,98.40
2018-05-24T01:34:38.776Z,98.50
2018-05-24T01:37:23.335Z,98.50
2018-05-24T01:39:57.964Z,98.50
2018-05-24T01:42:28.037Z,98.60
2018-05-24T01:44:58.039Z,98.70
2018-05-24T01:47:27.039Z,98.90
2018-05-24T01:49:55.894Z,99.20
2018-05-24T01:52:23.972Z,99.10
2018-05-24T01:54:52.068Z,99.30
2018-05-24T01:57:22.159Z,99.20
2018-05-24T02:00:04.737Z,99.50
2018-05-24T02:02:34.306Z,99.50
2018-05-24T02:05:02.410Z,99.50
2018-05-24T02:07:31.378Z,99.70
2018-05-24T02:09:59.482Z,99.70
2018-05-24T02:12:27.573Z,99.70
2018-05-24T02:14:56.603Z,99.90
2018-05-24T02:17:36.621Z,99.90
2018-05-24T02:20:05.624Z,99.90
2018-05-24T02:22:34.475Z,99.90
2018-05-24T02:25:03.530Z,99.90
2018-05-24T02:27:37.972Z,99.90
2018-05-24T02:30:08.019Z,99.90
2018-05-24T02:32:36.125Z,99.90
2018-05-24T02:35:04.205Z,99.90
2018-05-24T02:37:34.189Z,99.90
2018-05-24T02:40:03.201Z,99.90
2018-05-24T02:42:31.308Z,99.90
2018-05-24T02:45:03.473Z,99.90
2018-05-24T02:47:31.565Z,99.90
2018-05-24T02:50:10.081Z,99.90
2018-05-24T02:52:38.186Z,99.90
2018-05-24T02:55:06.273Z,99.90
2018-05-24T02:57:35.381Z,99.90
2018-05-24T03:00:08.473Z,99.90
2018-05-24T03:02:37.261Z,99.90
2018-05-24T03:05:07.285Z,99.90
2018-05-24T03:07:40.802Z,99.90
2018-05-24T03:13:14.112Z,99.90
2018-05-24T03:16:05.132Z,99.90
2018-05-24T03:18:33.232Z,99.90
2018-05-24T03:21:06.869Z,99.90
2018-05-24T03:23:39.859Z,99.90
2018-05-24T03:26:07.954Z,99.90
2018-05-24T03:28:36.932Z,99.90
2018-05-24T03:31:08.719Z,99.90
2018-05-24T03:33:36.820Z,99.90
2018-05-24T03:36:10.226Z,99.90
2018-05-24T03:38:39.207Z,99.90
2018-05-24T03:41:13.762Z,99.90
2018-05-24T03:43:42.986Z,99.90
2018-05-24T03:46:16.196Z,99.90
2018-05-24T03:48:45.266Z,99.90
2018-05-24T03:51:17.867Z,99.90
2018-05-24T03:53:45.963Z,99.90
2018-05-24T03:56:14.067Z,99.90
2018-05-24T03:58:45.481Z,99.90
2018-05-24T04:01:26.130Z,99.90
2018-05-24T04:06:59.568Z,99.90
2018-05-24T04:09:27.673Z,99.90
2018-05-24T04:11:55.793Z,99.90
2018-05-24T04:14:27.786Z,99.90
2018-05-24T04:16:56.879Z,99.90
2018-05-24T04:19:24.984Z,99.40
2018-05-24T04:21:53.077Z,99.00
2018-05-24T04:24:21.161Z,98.40
2018-05-24T04:26:59.865Z,97.90
2018-05-24T04:29:28.731Z,96.20
2018-05-24T04:31:58.595Z,95.60
2018-05-24T04:34:28.667Z,95.60
2018-05-24T04:36:56.798Z,95.10
2018-05-24T04:39:29.118Z,93.60
2018-05-24T04:41:57.238Z,93.60
2018-05-24T04:44:25.308Z,93.90
2018-05-24T04:46:57.304Z,94.00
2018-05-24T04:49:30.725Z,94.10
2018-05-24T04:52:01.499Z,94.20
2018-05-24T04:54:29.601Z,94.10
2018-05-24T04:56:57.719Z,93.90
2018-05-24T04:59:25.810Z,93.80
2018-05-24T05:02:06.686Z,93.50
2018-05-24T05:04:35.706Z,93.50
2018-05-24T05:07:03.901Z,93.10
2018-05-24T05:09:32.771Z,96.20
2018-05-24T05:12:02.905Z,96.20
2018-05-24T05:14:30.996Z,97.60
2018-05-24T05:16:59.104Z,98.70
2018-05-24T05:19:27.226Z,99.30
2018-05-24T05:21:57.638Z,99.90
2018-05-24T05:24:25.737Z,99.90
2018-05-24T05:26:54.740Z,99.90
2018-05-24T05:29:23.514Z,99.90
2018-05-24T05:31:55.694Z,99.90
2018-05-24T05:34:23.806Z,99.90
2018-05-24T05:36:53.826Z,99.90
2018-05-24T05:39:25.031Z,99.90
2018-05-24T05:41:53.137Z,99.90
2018-05-24T05:44:22.068Z,99.90
2018-05-24T05:46:50.180Z,99.90
2018-05-24T05:49:18.250Z,99.90
2018-05-24T05:51:49.634Z,99.90
2018-05-24T05:54:17.736Z,99.90
2018-05-24T05:56:55.272Z,99.90
2018-05-24T05:59:24.280Z,99.90
2018-05-24T06:01:53.298Z,99.90
2018-05-24T06:04:22.340Z,99.90
2018-05-24T06:06:50.477Z,99.90
2018-05-24T06:09:19.330Z,99.90
2018-05-24T06:11:48.443Z,99.90
2018-05-24T06:14:20.829Z,99.90
2018-05-24T06:16:52.523Z,99.90
2018-05-24T06:19:21.450Z,99.90
2018-05-24T06:21:50.441Z,99.90
2018-05-24T06:24:19.517Z,99.90
2018-05-24T06:26:47.625Z,99.90
2018-05-24T06:29:18.437Z,99.90
2018-05-24T06:31:46.554Z,99.90
2018-05-24T06:34:15.596Z,99.90
2018-05-24T06:36:43.689Z,99.90
2018-05-24T06:39:11.850Z,99.90
2018-05-24T06:41:40.719Z,99.90
2018-05-24T06:44:08.846Z,99.90
2018-05-24T06:46:38.619Z,99.90
2018-05-24T06:49:10.292Z,99.90
2018-05-24T06:51:42.775Z,99.90
2018-05-24T06:54:10.941Z,99.90
2018-05-24T06:56:39.132Z,99.90
2018-05-24T06:59:10.980Z,99.90
2018-05-24T07:01:39.998Z,99.90
2018-05-24T07:04:08.141Z,99.90
2018-05-24T07:06:37.053Z,99.90
2018-05-24T07:09:06.985Z,99.90
2018-05-24T07:11:35.126Z,99.90
2018-05-24T07:14:04.216Z,99.90
2018-05-24T07:16:32.330Z,99.90
2018-05-24T07:19:00.451Z,99.90
2018-05-24T07:21:28.592Z,99.90
2018-05-24T07:23:57.699Z,99.90
2018-05-24T07:26:25.797Z,99.90
2018-05-24T07:28:53.932Z,99.90
2018-05-24T07:31:24.012Z,99.90
2018-05-24T07:33:52.113Z,99.90
2018-05-24T07:36:22.331Z,99.90
2018-05-24T07:38:50.422Z,99.90
2018-05-24T07:41:20.287Z,99.90
2018-05-24T07:43:48.400Z,99.90
2018-05-24T07:46:16.489Z,99.90
2018-05-24T07:48:45.246Z,99.90
2018-05-24T07:51:13.347Z,99.90
2018-05-24T07:53:41.433Z,99.90
2018-05-24T07:56:10.524Z,99.90
2018-05-24T07:58:38.617Z,99.90
2018-05-24T08:01:07.728Z,99.90
2018-05-24T08:03:36.390Z,99.90
2018-05-24T08:06:04.507Z,99.90
2018-05-24T08:08:32.674Z,99.80
2018-05-24T08:11:00.732Z,99.60
2018-05-24T08:13:33.901Z,99.70
2018-05-24T08:16:02.053Z,99.10
2018-05-24T08:18:30.183Z,98.90
2018-05-24T08:20:59.233Z,98.70
2018-05-24T08:23:28.396Z,98.70
2018-05-24T08:25:58.532Z,98.80
2018-05-24T08:28:26.624Z,98.50
2018-05-24T08:30:57.885Z,98.00
2018-05-24T08:33:27.956Z,96.90
2018-05-24T08:35:59.634Z,96.60
2018-05-24T08:38:28.563Z,96.00
2018-05-24T08:40:58.790Z,96.00
2018-05-24T08:43:27.628Z,95.30
2018-05-24T08:45:55.724Z,95.20
2018-05-24T08:48:27.751Z,94.00
2018-05-24T08:51:02.210Z,93.90
2018-05-24T08:53:31.282Z,93.70
2018-05-24T08:55:59.423Z,93.80
2018-05-24T08:58:29.318Z,92.30
2018-05-24T09:00:59.501Z,92.30
2018-05-24T09:03:27.602Z,92.70
2018-05-24T09:05:56.717Z,92.50
2018-05-24T09:08:24.808Z,92.40
2018-05-24T09:10:56.662Z,92.60
2018-05-24T09:13:29.567Z,92.70
2018-05-24T09:15:57.761Z,92.70
2018-05-24T09:18:29.117Z,92.50
2018-05-24T09:20:57.206Z,92.60
2018-05-24T09:23:30.727Z,92.50
2018-05-24T09:25:59.881Z,92.50
2018-05-24T09:28:31.313Z,92.70
2018-05-24T09:30:59.388Z,92.70
2018-05-24T09:33:27.601Z,92.70
2018-05-24T09:35:58.744Z,92.70
2018-05-24T09:38:36.206Z,92.20
2018-05-24T09:41:04.335Z,91.20
2018-05-24T09:43:33.399Z,90.40
2018-05-24T09:46:01.567Z,90.20
2018-05-24T09:48:31.628Z,90.70
2018-05-24T09:50:59.736Z,91.50
2018-05-24T09:53:28.829Z,91.20
2018-05-24T09:55:57.181Z,90.80
2018-05-24T09:58:36.247Z,91.00
2018-05-24T10:01:05.147Z,91.10
2018-05-24T10:03:33.339Z,91.10
2018-05-24T10:06:01.436Z,91.50
2018-05-24T10:08:29.589Z,91.20
2018-05-24T10:10:57.851Z,91.00
2018-05-24T10:13:26.673Z,90.50
2018-05-24T10:15:54.813Z,90.20
2018-05-24T10:18:23.879Z,90.30
2018-05-24T10:20:51.994Z,90.40
2018-05-24T10:23:20.292Z,90.50
2018-05-24T10:25:48.396Z,91.80
2018-05-24T10:28:17.288Z,91.80
2018-05-24T10:30:45.456Z,91.80
2018-05-24T10:33:15.679Z,92.50
2018-05-24T10:35:43.805Z,92.40
2018-05-24T10:38:15.052Z,91.80
2018-05-24T10:40:43.264Z,91.80
2018-05-24T10:43:11.386Z,91.90
2018-05-24T10:45:42.714Z,92.10
2018-05-24T10:48:10.946Z,92.10
2018-05-24T10:50:39.103Z,92.10
2018-05-24T10:53:08.110Z,92.00
2018-05-24T10:55:37.240Z,92.00
2018-05-24T10:58:06.313Z,91.60
2018-05-24T11:00:34.429Z,91.50
2018-05-24T11:03:02.554Z,91.40
2018-05-24T11:05:30.631Z,91.50
2018-05-24T11:07:58.763Z,90.80
2018-05-24T11:10:27.759Z,90.60
2018-05-24T11:12:57.061Z,90.90
2018-05-24T11:15:26.140Z,90.90
2018-05-24T11:17:54.216Z,90.90
2018-05-24T11:20:25.967Z,90.70
2018-05-24T11:22:54.064Z,90.80
2018-05-24T11:25:24.176Z,91.20
2018-05-24T11:27:52.248Z,91.10
2018-05-24T11:30:20.462Z,90.90
2018-05-24T11:32:48.541Z,91.20
2018-05-24T11:35:20.582Z,90.70
2018-05-24T11:37:49.494Z,90.80
2018-05-24T11:40:18.599Z,90.90
2018-05-24T11:42:46.691Z,91.20
2018-05-24T11:45:14.835Z,90.50
2018-05-24T11:47:48.962Z,90.40
2018-05-24T11:50:17.088Z,90.40
2018-05-24T11:52:45.172Z,90.00
2018-05-24T11:55:15.198Z,90.50
2018-05-24T11:57:43.322Z,89.80
2018-05-24T12:00:11.663Z,90.00
2018-05-24T12:02:39.771Z,89.60
2018-05-24T12:05:07.993Z,89.80
2018-05-24T12:07:37.864Z,90.10
2018-05-24T12:10:08.018Z,90.10
2018-05-24T12:12:36.863Z,90.20
2018-05-24T12:15:05.712Z,89.80
2018-05-24T12:17:33.918Z,89.70
2018-05-24T12:20:02.037Z,89.90
2018-05-24T12:22:30.907Z,89.90
2018-05-24T12:24:59.050Z,89.80
2018-05-24T12:27:29.075Z,90.00
2018-05-24T12:29:57.747Z,90.30
2018-05-24T12:32:25.834Z,89.20
2018-05-24T12:34:55.885Z,89.80
2018-05-24T12:37:24.885Z,89.60
2018-05-24T12:39:53.866Z,89.70
2018-05-24T12:42:22.753Z,89.30
2018-05-24T12:44:50.868Z,89.30
2018-05-24T12:47:19.006Z,89.70
2018-05-24T12:49:47.093Z,89.60
2018-05-24T12:52:20.522Z,90.00
2018-05-24T12:54:50.368Z,90.00
2018-05-24T12:57:20.348Z,90.00
2018-05-24T12:59:49.959Z,89.70
2018-05-24T13:02:19.084Z,89.90
2018-05-24T13:04:48.225Z,89.30
2018-05-24T13:07:20.829Z,89.20
2018-05-24T13:09:49.989Z,89.70
2018-05-24T13:12:18.961Z,90.00
2018-05-24T13:14:48.822Z,90.30
2018-05-24T13:17:26.577Z,90.10
2018-05-24T13:19:55.725Z,90.30
2018-05-24T13:22:25.849Z,90.20
2018-05-24T13:24:53.940Z,89.90
2018-05-24T13:27:22.031Z,89.20
2018-05-24T13:29:50.272Z,88.60
2018-05-24T13:32:18.401Z,88.20
2018-05-24T13:34:46.536Z,88.40
2018-05-24T13:37:15.580Z,89.00
2018-05-24T13:39:43.678Z,89.70
2018-05-24T13:42:11.780Z,90.00
2018-05-24T13:44:39.897Z,89.10
2018-05-24T13:47:13.040Z,88.70
2018-05-24T13:49:43.132Z,89.00
2018-05-24T13:52:11.257Z,88.80
2018-05-24T13:54:39.375Z,88.50
2018-05-24T13:57:07.475Z,88.10
2018-05-24T13:59:36.524Z,87.30
2018-05-24T14:02:04.640Z,87.20
2018-05-24T14:04:32.762Z,86.40
2018-05-24T14:07:00.881Z,87.00
2018-05-24T14:09:31.785Z,87.30
2018-05-24T14:12:01.651Z,87.50
2018-05-24T14:14:32.932Z,87.50
2018-05-24T14:17:01.078Z,87.70
2018-05-24T14:19:30.042Z,87.90
2018-05-24T14:22:02.170Z,87.80
2018-05-24T14:24:37.115Z,87.20
2018-05-24T14:27:06.236Z,87.40
2018-05-24T14:29:35.314Z,86.60
2018-05-24T14:32:03.883Z,86.40
2018-05-24T14:34:32.012Z,86.40
2018-05-24T14:37:00.107Z,86.70
2018-05-24T14:39:39.675Z,87.30
2018-05-24T14:42:07.827Z,87.00
2018-05-24T14:44:35.936Z,87.30
2018-05-24T14:47:07.061Z,87.30
2018-05-24T14:49:37.103Z,87.50
2018-05-24T14:52:07.147Z,87.40
2018-05-24T14:54:41.936Z,87.60
2018-05-24T14:57:10.812Z,88.20
2018-05-24T14:59:38.906Z,88.10
2018-05-24T15:02:07.077Z,88.20
2018-05-24T15:04:35.191Z,88.10
2018-05-24T15:07:04.086Z,87.80
2018-05-24T15:09:33.559Z,87.70
2018-05-24T15:12:01.965Z,87.70
2018-05-24T15:14:32.009Z,87.30
2018-05-24T15:17:01.111Z,87.10
2018-05-24T15:19:30.205Z,87.00
2018-05-24T15:21:58.320Z,87.00
2018-05-24T15:24:27.361Z,87.20
2018-05-24T15:26:55.465Z,87.30
2018-05-24T15:29:23.560Z,86.90
2018-05-24T15:31:51.888Z,86.70
2018-05-24T15:34:22.026Z,86.50
2018-05-24T15:36:50.908Z,86.20
2018-05-24T15:39:20.053Z,86.20
2018-05-24T15:41:50.164Z,86.10
2018-05-24T15:44:19.019Z,85.10
2018-05-24T15:46:47.145Z,85.10
2018-05-24T15:49:16.204Z,84.50
2018-05-24T15:51:45.442Z,84.70
2018-05-24T15:54:14.159Z,85.10
2018-05-24T15:56:42.248Z,85.00
2018-05-24T15:59:10.442Z,84.50
2018-05-24T16:01:40.521Z,84.50
2018-05-24T16:04:10.615Z,84.70
2018-05-24T16:06:38.761Z,84.30
2018-05-24T16:09:10.322Z,84.00
2018-05-24T16:11:40.253Z,84.10
2018-05-24T16:14:08.441Z,84.10
2018-05-24T16:16:37.622Z,84.20
2018-05-24T16:19:05.751Z,83.90
2018-05-24T16:21:33.976Z,84.50
2018-05-24T16:24:04.042Z,85.90
2018-05-24T16:26:32.123Z,86.50
2018-05-24T16:29:03.274Z,86.80
2018-05-24T16:31:37.200Z,87.50
2018-05-24T16:34:05.348Z,87.70
2018-05-24T16:36:41.429Z,88.10
2018-05-24T16:39:09.708Z,88.80
2018-05-24T16:41:42.290Z,88.90
2018-05-24T16:44:14.011Z,89.00
2018-05-24T16:46:42.169Z,89.50
2018-05-24T16:49:11.312Z,89.40
2018-05-24T16:51:40.426Z,89.30
2018-05-24T16:54:08.538Z,89.40
2018-05-24T16:56:37.398Z,89.30
2018-05-24T16:59:05.503Z,89.20
2018-05-24T17:01:34.405Z,89.60
2018-05-24T17:04:05.617Z,89.20
2018-05-24T17:06:33.778Z,88.50
2018-05-24T17:09:02.856Z,88.80
2018-05-24T17:11:35.792Z,88.80
2018-05-24T17:14:08.489Z,89.10
2018-05-24T17:16:38.738Z,89.00
2018-05-24T17:19:06.891Z,88.80
2018-05-24T17:21:39.551Z,88.70
2018-05-24T17:24:09.956Z,88.60
2018-05-24T17:26:39.086Z,88.30
2018-05-24T17:29:08.174Z,88.00
2018-05-24T17:31:40.368Z,87.80
2018-05-24T17:34:08.490Z,88.40
2018-05-24T17:36:36.617Z,88.60
2018-05-24T17:39:05.733Z,88.70
2018-05-24T17:41:34.884Z,88.30
2018-05-24T17:44:03.754Z,88.90
2018-05-24T17:46:38.721Z,88.80
2018-05-24T17:49:07.597Z,89.10
2018-05-24T17:51:35.666Z,89.00
2018-05-24T17:54:04.772Z,89.00
2018-05-24T17:56:34.811Z,88.80
2018-05-24T17:59:02.921Z,88.90
2018-05-24T18:01:31.953Z,90.10
2018-05-24T18:04:00.149Z,90.70
2018-05-24T18:06:39.047Z,91.10
2018-05-24T18:09:08.159Z,91.30
2018-05-24T18:11:36.259Z,91.50
2018-05-24T18:14:05.128Z,91.40
2018-05-24T18:16:33.225Z,91.40
2018-05-24T18:19:01.333Z,91.70
2018-05-24T18:21:32.156Z,92.20
2018-05-24T18:24:00.257Z,92.10
2018-05-24T18:26:28.356Z,92.30
2018-05-24T18:28:57.235Z,92.50
2018-05-24T18:31:27.034Z,92.50
2018-05-24T18:33:55.205Z,92.60
2018-05-24T18:36:23.300Z,92.70
2018-05-24T18:38:51.400Z,92.80
2018-05-24T18:41:19.515Z,93.00
2018-05-24T18:43:49.409Z,93.30
2018-05-24T18:46:18.574Z,93.30
2018-05-24T18:48:48.599Z,93.30
2018-05-24T18:51:16.716Z,93.60
2018-05-24T18:53:45.793Z,93.90
2018-05-24T18:56:13.909Z,94.10
2018-05-24T18:58:42.019Z,94.30
2018-05-24T19:01:10.128Z,94.40
2018-05-24T19:03:38.980Z,94.80
2018-05-24T19:06:07.070Z,94.80
2018-05-24T19:08:36.119Z,94.90
2018-05-24T19:11:04.992Z,95.40
2018-05-24T19:13:33.071Z,95.40
2018-05-24T19:16:01.189Z,95.40
2018-05-24T19:18:30.045Z,95.60
2018-05-24T19:20:58.149Z,95.60
2018-05-24T19:23:26.248Z,95.70
2018-05-24T19:25:56.098Z,95.90
2018-05-24T19:28:26.123Z,95.80
2018-05-24T19:30:54.220Z,95.80
2018-05-24T19:33:22.312Z,95.80
2018-05-24T19:35:52.414Z,95.90
2018-05-24T19:38:21.266Z,95.80
2018-05-24T19:40:49.359Z,95.80
2018-05-24T19:43:17.472Z,95.90
2018-05-24T19:45:50.679Z,95.90
2018-05-24T19:48:20.657Z,95.80
2018-05-24T19:50:48.755Z,95.80
2018-05-24T19:53:16.880Z,96.10
2018-05-24T19:55:45.776Z,96.40
2018-05-24T19:58:19.932Z,96.40
2018-05-24T20:00:50.081Z,96.40
2018-05-24T20:03:18.175Z,96.50
2018-05-24T20:05:46.278Z,96.30
2018-05-24T20:08:18.421Z,96.10
2018-05-24T20:10:47.523Z,96.20
2018-05-24T20:13:17.955Z,96.00
2018-05-24T20:15:50.406Z,96.00
2018-05-24T20:18:18.485Z,95.70
2018-05-24T20:20:46.566Z,95.60
2018-05-24T20:23:14.699Z,95.60
2018-05-24T20:25:42.794Z,95.90
2018-05-24T20:28:10.930Z,95.80
2018-05-24T20:30:41.701Z,96.00
2018-05-24T20:33:13.212Z,96.00
2018-05-24T20:35:41.308Z,96.20
2018-05-24T20:38:15.498Z,96.50
2018-05-24T20:40:43.631Z,96.60
2018-05-24T20:43:11.708Z,96.70
2018-05-24T20:45:39.809Z,96.70
2018-05-24T20:48:09.494Z,96.70
2018-05-24T20:50:37.621Z,96.70
2018-05-24T20:53:11.753Z,96.80
2018-05-24T20:55:42.828Z,97.00
2018-05-24T20:58:14.674Z,97.10
2018-05-24T21:00:43.600Z,97.10
2018-05-24T21:03:11.677Z,97.10
2018-05-24T21:05:39.990Z,97.20
2018-05-24T21:08:10.013Z,97.30
2018-05-24T21:10:40.089Z,97.30
2018-05-24T21:13:13.939Z,97.40
2018-05-24T21:15:43.364Z,97.70
2018-05-24T21:18:11.514Z,97.70
2018-05-24T21:20:40.376Z,98.20
2018-05-24T21:23:09.436Z,97.90
2018-05-24T21:25:37.565Z,98.20
2018-05-24T21:28:10.317Z,98.20
2018-05-24T21:30:41.529Z,98.40
2018-05-24T21:33:11.276Z,98.50
2018-05-24T21:35:39.514Z,98.60
2018-05-24T21:38:11.938Z,98.70
2018-05-24T21:40:41.027Z,98.80
2018-05-24T21:43:09.891Z,98.80
2018-05-24T21:45:40.315Z,99.10
2018-05-24T21:48:09.218Z,99.10
2018-05-24T21:50:39.792Z,99.40
2018-05-24T21:53:08.157Z,99.30
2018-05-24T21:55:40.696Z,99.60
2018-05-24T21:58:24.458Z,99.70
2018-05-24T22:01:07.498Z,99.70
2018-05-24T22:03:47.373Z,99.90
2018-05-24T22:06:20.663Z,99.90
2018-05-24T22:08:59.265Z,99.90
2018-05-24T22:14:40.081Z,99.90
2018-05-24T22:17:08.938Z,99.90
2018-05-24T22:19:36.998Z,99.90
2018-05-24T22:22:10.270Z,99.90
2018-05-24T22:24:42.349Z,99.90
2018-05-24T22:27:10.474Z,99.90
2018-05-24T22:29:41.884Z,99.90
2018-05-24T22:32:09.978Z,99.90
2018-05-24T22:34:38.061Z,99.90
2018-05-24T22:37:06.144Z,99.90
2018-05-24T22:39:35.008Z,99.90
2018-05-24T22:42:05.095Z,99.90
2018-05-24T22:44:33.202Z,99.90
2018-05-24T22:47:01.639Z,99.90
2018-05-24T22:49:29.763Z,99.90
2018-05-24T22:51:57.846Z,99.90
2018-05-24T22:54:25.935Z,99.90
2018-05-24T22:56:54.009Z,99.90
2018-05-24T22:59:23.078Z,99.90
2018-05-24T23:01:56.790Z,99.90
2018-05-24T23:04:25.641Z,99.90
2018-05-24T23:06:53.745Z,99.90
2018-05-24T23:09:26.166Z,99.90
2018-05-24T23:11:59.168Z,99.90
2018-05-24T23:14:27.251Z,99.90
2018-05-24T23:16:57.296Z,99.90
2018-05-24T23:19:25.397Z,99.90
2018-05-24T23:21:54.378Z,99.90
2018-05-24T23:24:22.518Z,99.90
2018-05-24T23:26:52.598Z,99.90
2018-05-24T23:29:20.690Z,99.90
2018-05-24T23:31:48.777Z,99.90
2018-05-24T23:34:17.770Z,99.90
2018-05-24T23:36:49.530Z,99.90
2018-05-24T23:39:17.625Z,99.90
2018-05-24T23:41:45.715Z,99.90
2018-05-24T23:44:13.844Z,99.90
2018-05-24T23:46:41.951Z,99.90
2018-05-24T23:49:10.824Z,99.90
2018-05-24T23:51:44.682Z,99.90
2018-05-24T23:54:14.867Z,99.90
2018-05-24T23:56:53.938Z,99.90
2018-05-24T23:59:22.956Z,99.90
